createdAt,value
2022-12-06T00:00:16.740Z,100.0
2022-12-06T00:01:17.189Z,100.0
2022-12-06T00:02:16.634Z,100.0
2022-12-06T00:03:17.307Z,100.0
2022-12-06T00:04:16.809Z,100.0
2022-12-06T00:05:17.319Z,100.0
2022-12-06T00:06:16.799Z,100.0
2022-12-06T00:07:17.285Z,100.0
2022-12-06T00:08:16.982Z,100.0
2022-12-06T00:09:16.534Z,100.0
2022-12-06T00:10:17.044Z,100.0
2022-12-06T00:11:16.553Z,100.0
2022-12-06T00:12:17.028Z,100.0
2022-12-06T00:13:16.480Z,100.0
2022-12-06T00:14:16.964Z,100.0
2022-12-06T00:15:17.425Z,100.0
2022-12-06T00:16:17.104Z,100.0
2022-12-06T00:17:16.610Z,100.0
2022-12-06T00:18:17.079Z,100.0
2022-12-06T00:19:16.539Z,100.0
2022-12-06T00:20:17.014Z,100.0
2022-12-06T00:21:16.479Z,100.0
2022-12-06T00:22:17.816Z,100.0
2022-12-06T00:23:17.334Z,100.0
2022-12-06T00:24:16.819Z,100.0
2022-12-06T00:25:17.330Z,100.0
2022-12-06T00:26:16.834Z,100.0
2022-12-06T00:27:17.289Z,100.0
2022-12-06T00:28:16.757Z,100.0
2022-12-06T00:29:17.240Z,100.0
2022-12-06T00:30:16.714Z,100.0
2022-12-06T00:31:17.390Z,100.0
2022-12-06T00:32:20.038Z,100.0
2022-12-06T00:33:16.641Z,100.0
2022-12-06T00:34:17.155Z,100.0
2022-12-06T00:35:16.617Z,100.0
2022-12-06T00:36:17.098Z,100.0
2022-12-06T00:37:16.587Z,100.0
2022-12-06T00:38:17.087Z,100.0
2022-12-06T00:39:16.596Z,100.0
2022-12-06T00:40:17.069Z,100.0
2022-12-06T00:41:16.548Z,100.0
2022-12-06T00:42:17.424Z,100.0
2022-12-06T00:43:16.883Z,100.0
2022-12-06T00:44:17.351Z,100.0
2022-12-06T00:45:16.818Z,100.0
2022-12-06T00:46:17.518Z,100.0
2022-12-06T00:47:17.084Z,100.0
2022-12-06T00:48:16.577Z,100.0
2022-12-06T00:49:17.059Z,100.0
2022-12-06T00:50:16.544Z,100.0
2022-12-06T00:51:17.077Z,100.0
2022-12-06T00:52:16.796Z,100.0
2022-12-06T00:53:17.272Z,100.0
2022-12-06T00:54:16.739Z,100.0
2022-12-06T00:55:17.249Z,100.0
2022-12-06T00:56:16.703Z,100.0
2022-12-06T00:57:17.161Z,100.0
2022-12-06T00:58:16.671Z,100.0
2022-12-06T00:59:17.179Z,100.0
2022-12-06T01:00:16.642Z,100.0
2022-12-06T01:01:17.297Z,100.0
2022-12-06T01:02:16.797Z,100.0
2022-12-06T01:03:17.524Z,100.0
2022-12-06T01:04:17.031Z,100.0
2022-12-06T01:05:16.529Z,100.0
2022-12-06T01:06:17.042Z,100.0
2022-12-06T01:07:16.517Z,100.0
2022-12-06T01:08:17.110Z,100.0
2022-12-06T01:09:16.610Z,100.0
2022-12-06T01:10:17.180Z,100.0
2022-12-06T01:11:16.713Z,100.0
2022-12-06T01:12:16.713Z,100.0
2022-12-06T01:13:17.186Z,100.0
2022-12-06T01:14:16.696Z,100.0
2022-12-06T01:15:17.175Z,100.0
2022-12-06T01:16:16.746Z,100.0
2022-12-06T01:17:17.283Z,100.0
2022-12-06T01:18:16.802Z,100.0
2022-12-06T01:19:17.292Z,100.0
2022-12-06T01:20:16.768Z,100.0
2022-12-06T01:21:17.239Z,100.0
2022-12-06T01:22:17.016Z,100.0
2022-12-06T01:23:16.484Z,100.0
2022-12-06T01:24:16.956Z,100.0
2022-12-06T01:25:17.465Z,100.0
2022-12-06T01:26:16.960Z,100.0
2022-12-06T01:27:17.523Z,100.0
2022-12-06T01:28:17.043Z,100.0
2022-12-06T01:29:16.529Z,100.0
2022-12-06T01:30:17.003Z,100.0
2022-12-06T01:31:16.612Z,100.0
2022-12-06T01:32:16.976Z,100.0
2022-12-06T01:33:16.455Z,100.0
2022-12-06T01:34:16.967Z,100.0
2022-12-06T01:35:16.453Z,100.0
2022-12-06T01:36:16.942Z,100.0
2022-12-06T01:37:17.463Z,100.0
2022-12-06T01:38:16.947Z,100.0
2022-12-06T01:39:17.432Z,100.0
2022-12-06T01:40:16.939Z,100.0
2022-12-06T01:41:17.427Z,100.0
2022-12-06T01:42:17.138Z,100.0
2022-12-06T01:43:16.612Z,100.0
2022-12-06T01:44:21.448Z,100.0
2022-12-06T01:45:16.922Z,100.0
2022-12-06T01:46:17.532Z,100.0
2022-12-06T01:47:17.032Z,100.0
2022-12-06T01:48:16.503Z,99.9
2022-12-06T01:49:16.958Z,99.9
2022-12-06T01:50:17.427Z,100.0
2022-12-06T01:51:16.894Z,100.0
2022-12-06T01:52:17.028Z,100.0
2022-12-06T01:53:24.110Z,100.0
2022-12-06T01:54:16.910Z,100.0
2022-12-06T01:55:17.394Z,99.9
2022-12-06T01:56:16.861Z,99.8
2022-12-06T01:57:17.367Z,99.8
2022-12-06T01:58:16.871Z,99.9
2022-12-06T01:59:17.321Z,99.8
2022-12-06T02:00:16.803Z,99.9
2022-12-06T02:01:17.486Z,99.9
2022-12-06T02:02:17.363Z,99.9
2022-12-06T02:03:16.863Z,99.9
2022-12-06T02:04:17.342Z,99.9
2022-12-06T02:05:16.807Z,100.0
2022-12-06T02:06:17.318Z,100.0
2022-12-06T02:07:16.788Z,99.9
2022-12-06T02:08:17.390Z,99.9
2022-12-06T02:09:16.910Z,99.9
2022-12-06T02:10:17.386Z,99.8
2022-12-06T02:11:16.866Z,99.9
2022-12-06T02:12:17.292Z,99.9
2022-12-06T02:13:16.805Z,99.9
2022-12-06T02:14:17.298Z,99.9
2022-12-06T02:15:16.784Z,99.9
2022-12-06T02:16:17.373Z,99.9
2022-12-06T02:17:17.040Z,99.9
2022-12-06T02:18:16.551Z,99.9
2022-12-06T02:19:17.053Z,99.9
2022-12-06T02:20:16.538Z,100.0
2022-12-06T02:21:16.999Z,99.9
2022-12-06T02:22:16.830Z,99.9
2022-12-06T02:23:17.314Z,100.0
2022-12-06T02:24:16.800Z,100.0
2022-12-06T02:25:17.272Z,99.9
2022-12-06T02:26:16.735Z,99.9
2022-12-06T02:27:17.234Z,99.9
2022-12-06T02:28:16.719Z,99.9
2022-12-06T02:29:17.192Z,99.8
2022-12-06T02:30:16.671Z,99.8
2022-12-06T02:31:17.277Z,99.8
2022-12-06T02:32:17.090Z,99.8
2022-12-06T02:33:16.596Z,99.8
2022-12-06T02:34:17.063Z,99.8
2022-12-06T02:35:16.548Z,99.8
2022-12-06T02:36:17.006Z,99.8
2022-12-06T02:37:16.496Z,99.8
2022-12-06T02:38:16.968Z,99.8
2022-12-06T02:39:16.463Z,99.8
2022-12-06T02:40:16.939Z,99.8
2022-12-06T02:41:17.412Z,99.8
2022-12-06T02:42:17.101Z,99.8
2022-12-06T02:43:16.566Z,99.8
2022-12-06T02:44:17.046Z,99.8
2022-12-06T02:45:16.527Z,99.8
2022-12-06T02:46:17.099Z,99.8
2022-12-06T02:47:16.669Z,99.8
2022-12-06T02:48:17.205Z,99.8
2022-12-06T02:49:16.690Z,99.8
2022-12-06T02:50:17.173Z,99.7
2022-12-06T02:51:16.698Z,99.7
2022-12-06T02:52:17.432Z,99.7
2022-12-06T02:53:16.895Z,99.7
2022-12-06T02:54:17.374Z,99.7
2022-12-06T02:55:16.855Z,99.7
2022-12-06T02:56:17.351Z,99.7
2022-12-06T02:57:16.941Z,99.7
2022-12-06T02:58:17.414Z,99.7
2022-12-06T02:59:16.921Z,99.7
2022-12-06T03:00:17.427Z,99.7
2022-12-06T03:01:17.023Z,99.7
2022-12-06T03:02:17.012Z,99.7
2022-12-06T03:03:16.520Z,99.7
2022-12-06T03:04:16.985Z,99.7
2022-12-06T03:05:16.477Z,99.7
2022-12-06T03:06:16.978Z,99.7
2022-12-06T03:07:16.459Z,99.8
2022-12-06T03:08:17.018Z,99.8
2022-12-06T03:09:16.528Z,99.8
2022-12-06T03:10:16.988Z,99.8
2022-12-06T03:11:16.473Z,99.8
2022-12-06T03:12:17.256Z,99.8
2022-12-06T03:13:16.768Z,99.8
2022-12-06T03:14:17.271Z,99.8
2022-12-06T03:15:16.743Z,99.8
2022-12-06T03:16:17.334Z,99.8
2022-12-06T03:17:16.901Z,99.8
2022-12-06T03:18:17.361Z,99.8
2022-12-06T03:19:16.836Z,99.8
2022-12-06T03:20:17.319Z,99.7
2022-12-06T03:21:16.817Z,99.8
2022-12-06T03:22:17.341Z,99.7
2022-12-06T03:23:16.790Z,99.8
2022-12-06T03:24:17.280Z,99.8
2022-12-06T03:25:16.778Z,99.8
2022-12-06T03:26:17.257Z,99.8
2022-12-06T03:27:16.789Z,99.8
2022-12-06T03:28:17.284Z,99.8
2022-12-06T03:29:16.785Z,99.7
2022-12-06T03:30:17.274Z,99.7
2022-12-06T03:31:16.938Z,99.7
2022-12-06T03:32:17.367Z,99.7
2022-12-06T03:33:16.835Z,99.8
2022-12-06T03:34:17.321Z,99.7
2022-12-06T03:35:16.807Z,99.7
2022-12-06T03:36:17.280Z,99.7
2022-12-06T03:37:16.765Z,99.7
2022-12-06T03:38:17.275Z,99.7
2022-12-06T03:39:16.771Z,99.7
2022-12-06T03:40:17.277Z,99.8
2022-12-06T03:41:16.783Z,99.8
2022-12-06T03:42:16.584Z,99.7
2022-12-06T03:43:17.096Z,99.8
2022-12-06T03:44:16.604Z,99.8
2022-12-06T03:45:17.149Z,99.8
2022-12-06T03:46:16.997Z,99.7
2022-12-06T03:47:16.788Z,99.7
2022-12-06T03:48:17.314Z,99.7
2022-12-06T03:49:16.792Z,99.7
2022-12-06T03:50:17.310Z,99.7
2022-12-06T03:51:16.782Z,99.7
2022-12-06T03:52:16.626Z,99.7
2022-12-06T03:53:17.095Z,99.8
2022-12-06T03:54:16.625Z,99.8
2022-12-06T03:55:17.103Z,99.8
2022-12-06T03:56:17.360Z,99.7
2022-12-06T03:57:16.860Z,99.8
2022-12-06T03:58:17.344Z,99.7
2022-12-06T03:59:16.821Z,99.8
2022-12-06T04:00:17.321Z,99.8
2022-12-06T04:01:16.973Z,99.8
2022-12-06T04:02:16.979Z,99.8
2022-12-06T04:03:16.646Z,99.8
2022-12-06T04:04:17.341Z,99.8
2022-12-06T04:05:16.872Z,99.8
2022-12-06T04:06:17.400Z,99.7
2022-12-06T04:07:16.883Z,99.7
2022-12-06T04:08:17.634Z,99.8
2022-12-06T04:09:17.178Z,99.8
2022-12-06T04:10:16.648Z,99.8
2022-12-06T04:11:17.110Z,99.8
2022-12-06T04:12:16.991Z,99.8
2022-12-06T04:13:20.051Z,99.8
2022-12-06T04:14:16.580Z,99.8
2022-12-06T04:15:17.080Z,99.8
2022-12-06T04:16:16.804Z,99.8
2022-12-06T04:17:17.352Z,99.8
2022-12-06T04:18:16.834Z,99.8
2022-12-06T04:19:17.349Z,99.8
2022-12-06T04:20:16.822Z,99.8
2022-12-06T04:21:17.362Z,99.8
2022-12-06T04:22:17.208Z,99.8
2022-12-06T04:23:16.681Z,99.8
2022-12-06T04:24:17.161Z,99.8
2022-12-06T04:25:16.614Z,99.8
2022-12-06T04:26:17.086Z,99.8
2022-12-06T04:27:16.561Z,99.8
2022-12-06T04:28:17.551Z,99.8
2022-12-06T04:29:17.018Z,99.8
2022-12-06T04:30:16.528Z,99.8
2022-12-06T04:31:22.583Z,99.8
2022-12-06T04:32:17.353Z,99.9
2022-12-06T04:33:16.849Z,99.8
2022-12-06T04:34:17.319Z,99.8
2022-12-06T04:35:16.815Z,99.8
2022-12-06T04:36:17.306Z,99.8
2022-12-06T04:37:16.792Z,99.8
2022-12-06T04:38:17.259Z,99.8
2022-12-06T04:39:21.332Z,99.8
2022-12-06T04:40:16.848Z,99.8
2022-12-06T04:41:17.354Z,99.8
2022-12-06T04:42:16.757Z,99.9
2022-12-06T04:43:17.234Z,100.0
2022-12-06T04:44:16.708Z,99.9
2022-12-06T04:45:17.200Z,99.9
2022-12-06T04:46:16.761Z,99.9
2022-12-06T04:47:17.343Z,99.8
2022-12-06T04:48:16.848Z,99.9
2022-12-06T04:49:17.346Z,99.9
2022-12-06T04:50:16.824Z,100.0
2022-12-06T04:51:17.283Z,99.9
2022-12-06T04:52:17.166Z,99.9
2022-12-06T04:53:16.645Z,99.9
2022-12-06T04:54:17.114Z,99.9
2022-12-06T04:55:16.614Z,99.9
2022-12-06T04:56:17.109Z,99.8
2022-12-06T04:57:16.598Z,99.8
2022-12-06T04:58:17.086Z,99.8
2022-12-06T04:59:16.565Z,99.8
2022-12-06T05:00:17.112Z,99.8
2022-12-06T05:01:16.742Z,99.9
2022-12-06T05:02:17.426Z,99.8
2022-12-06T05:03:16.935Z,99.8
2022-12-06T05:04:17.674Z,99.8
2022-12-06T05:05:17.321Z,99.8
2022-12-06T05:06:16.848Z,99.8
2022-12-06T05:07:17.315Z,99.8
2022-12-06T05:08:16.995Z,99.8
2022-12-06T05:09:16.496Z,99.8
2022-12-06T05:10:17.012Z,99.8
2022-12-06T05:11:16.503Z,99.8
2022-12-06T05:12:16.765Z,99.8
2022-12-06T05:13:17.248Z,99.8
2022-12-06T05:14:16.766Z,99.8
2022-12-06T05:15:17.229Z,99.8
2022-12-06T05:16:16.790Z,99.8
2022-12-06T05:17:17.307Z,99.8
2022-12-06T05:18:16.771Z,99.8
2022-12-06T05:19:17.243Z,99.8
2022-12-06T05:20:16.731Z,99.8
2022-12-06T05:21:17.202Z,99.8
2022-12-06T05:22:17.322Z,99.8
2022-12-06T05:23:16.844Z,99.8
2022-12-06T05:24:17.341Z,99.8
2022-12-06T05:25:16.828Z,99.8
2022-12-06T05:26:17.328Z,99.8
2022-12-06T05:27:16.838Z,99.8
2022-12-06T05:28:17.349Z,99.8
2022-12-06T05:29:16.828Z,99.8
2022-12-06T05:30:17.312Z,99.8
2022-12-06T05:31:16.997Z,99.8
2022-12-06T05:32:17.319Z,99.8
2022-12-06T05:33:16.816Z,99.8
2022-12-06T05:34:17.282Z,99.8
2022-12-06T05:35:16.786Z,99.8
2022-12-06T05:36:17.313Z,99.8
2022-12-06T05:37:16.779Z,99.8
2022-12-06T05:38:17.304Z,99.8
2022-12-06T05:39:16.768Z,99.8
2022-12-06T05:40:17.255Z,99.8
2022-12-06T05:41:16.722Z,99.8
2022-12-06T05:42:22.840Z,99.8
2022-12-06T05:43:17.360Z,99.8
2022-12-06T05:44:16.870Z,99.8
2022-12-06T05:45:17.321Z,99.8
2022-12-06T05:46:16.934Z,99.8
2022-12-06T05:47:16.470Z,99.8
2022-12-06T05:48:16.971Z,99.8
2022-12-06T05:49:16.477Z,99.8
2022-12-06T05:50:16.960Z,99.8
2022-12-06T05:51:17.427Z,99.8
2022-12-06T05:52:16.470Z,99.8
2022-12-06T05:53:16.969Z,99.8
2022-12-06T05:54:16.447Z,99.8
2022-12-06T05:55:16.902Z,99.8
2022-12-06T05:56:17.359Z,99.8
2022-12-06T05:57:16.833Z,99.8
2022-12-06T05:58:17.300Z,99.8
2022-12-06T05:59:16.775Z,99.8
2022-12-06T06:00:17.234Z,99.8
2022-12-06T06:01:16.750Z,99.8
2022-12-06T06:02:16.814Z,99.8
2022-12-06T06:03:17.617Z,99.8
2022-12-06T06:04:17.192Z,99.8
2022-12-06T06:05:16.708Z,99.8
2022-12-06T06:06:17.295Z,99.8
2022-12-06T06:07:16.787Z,99.8
2022-12-06T06:08:17.366Z,99.8
2022-12-06T06:09:16.856Z,99.8
2022-12-06T06:10:17.324Z,99.8
2022-12-06T06:11:16.830Z,99.8
2022-12-06T06:12:17.301Z,99.8
2022-12-06T06:13:16.768Z,99.8
2022-12-06T06:14:17.241Z,99.8
2022-12-06T06:15:16.715Z,99.8
2022-12-06T06:16:17.287Z,99.8
2022-12-06T06:17:16.777Z,99.8
2022-12-06T06:18:17.284Z,99.8
2022-12-06T06:19:16.764Z,99.8
2022-12-06T06:20:17.262Z,99.8
2022-12-06T06:21:16.770Z,99.8
2022-12-06T06:22:16.561Z,99.8
2022-12-06T06:23:17.040Z,99.8
2022-12-06T06:24:16.513Z,99.8
2022-12-06T06:25:16.985Z,99.8
2022-12-06T06:26:16.468Z,99.8
2022-12-06T06:27:16.976Z,99.8
2022-12-06T06:28:16.460Z,99.8
2022-12-06T06:29:16.955Z,99.8
2022-12-06T06:30:17.485Z,99.8
2022-12-06T06:31:17.118Z,99.8
2022-12-06T06:32:16.931Z,99.8
2022-12-06T06:33:17.476Z,99.8
2022-12-06T06:34:16.957Z,99.8
2022-12-06T06:35:17.436Z,99.8
2022-12-06T06:36:16.898Z,99.8
2022-12-06T06:37:17.417Z,99.8
2022-12-06T06:38:16.925Z,99.8
2022-12-06T06:39:17.387Z,99.8
2022-12-06T06:40:16.892Z,99.8
2022-12-06T06:41:17.372Z,99.8
2022-12-06T06:42:17.098Z,99.8
2022-12-06T06:43:16.598Z,99.7
2022-12-06T06:44:17.255Z,99.7
2022-12-06T06:45:16.882Z,99.7
2022-12-06T06:46:17.542Z,99.7
2022-12-06T06:47:17.049Z,99.8
2022-12-06T06:48:16.518Z,99.8
2022-12-06T06:49:16.978Z,99.8
2022-12-06T06:50:16.471Z,99.7
2022-12-06T06:51:16.935Z,99.7
2022-12-06T06:52:16.987Z,99.7
2022-12-06T06:53:16.504Z,99.7
2022-12-06T06:54:16.970Z,99.7
2022-12-06T06:55:16.445Z,99.7
2022-12-06T06:56:16.931Z,99.6
2022-12-06T06:57:18.272Z,99.6
2022-12-06T06:58:16.746Z,99.6
2022-12-06T06:59:17.225Z,99.7
2022-12-06T07:00:16.703Z,99.6
2022-12-06T07:01:17.259Z,99.6
2022-12-06T07:02:17.271Z,99.6
2022-12-06T07:03:16.890Z,99.5
2022-12-06T07:04:17.380Z,99.5
2022-12-06T07:05:16.904Z,99.5
2022-12-06T07:06:17.389Z,99.5
2022-12-06T07:07:21.524Z,99.6
2022-12-06T07:08:17.157Z,99.5
2022-12-06T07:09:16.689Z,99.5
2022-12-06T07:10:17.178Z,99.5
2022-12-06T07:11:16.654Z,99.5
2022-12-06T07:12:16.863Z,99.5
2022-12-06T07:13:17.332Z,99.5
2022-12-06T07:14:16.845Z,99.5
2022-12-06T07:15:17.307Z,99.5
2022-12-06T07:16:17.015Z,99.5
2022-12-06T07:17:16.725Z,99.5
2022-12-06T07:18:17.287Z,99.5
2022-12-06T07:19:16.781Z,99.4
2022-12-06T07:20:17.264Z,99.4
2022-12-06T07:21:16.746Z,99.5
2022-12-06T07:22:17.054Z,99.5
2022-12-06T07:23:16.529Z,99.5
2022-12-06T07:24:17.036Z,99.5
2022-12-06T07:25:16.504Z,99.5
2022-12-06T07:26:16.970Z,99.5
2022-12-06T07:27:16.453Z,99.5
2022-12-06T07:28:16.944Z,99.5
2022-12-06T07:29:17.436Z,99.5
2022-12-06T07:30:20.516Z,99.5
2022-12-06T07:31:17.377Z,99.5
2022-12-06T07:32:17.494Z,99.5
2022-12-06T07:33:16.980Z,99.5
2022-12-06T07:34:16.492Z,99.5
2022-12-06T07:35:16.973Z,99.5
2022-12-06T07:36:16.485Z,99.5
2022-12-06T07:37:16.945Z,99.5
2022-12-06T07:38:17.408Z,99.5
2022-12-06T07:39:16.891Z,99.5
2022-12-06T07:40:17.347Z,99.5
2022-12-06T07:41:16.810Z,99.5
2022-12-06T07:42:16.515Z,99.5
2022-12-06T07:43:17.022Z,99.5
2022-12-06T07:44:16.494Z,99.5
2022-12-06T07:45:16.995Z,99.4
2022-12-06T07:46:16.639Z,99.5
2022-12-06T07:47:17.163Z,99.5
2022-12-06T07:48:16.683Z,99.5
2022-12-06T07:49:17.196Z,99.5
2022-12-06T07:50:18.798Z,99.4
2022-12-06T07:51:17.342Z,99.5
2022-12-06T07:52:17.035Z,99.5
2022-12-06T07:53:16.505Z,99.5
2022-12-06T07:54:17.024Z,99.5
2022-12-06T07:55:16.512Z,99.4
2022-12-06T07:56:17.067Z,99.4
2022-12-06T07:57:16.563Z,99.5
2022-12-06T07:58:17.070Z,99.5
2022-12-06T07:59:16.542Z,99.5
2022-12-06T08:00:17.050Z,99.4
2022-12-06T08:01:16.664Z,99.5
2022-12-06T08:02:16.850Z,99.4
2022-12-06T08:03:17.336Z,99.4
2022-12-06T08:04:16.889Z,99.5
2022-12-06T08:05:17.391Z,99.4
2022-12-06T08:06:16.892Z,99.4
2022-12-06T08:07:17.605Z,99.4
2022-12-06T08:08:17.168Z,99.4
2022-12-06T08:09:16.714Z,99.4
2022-12-06T08:10:17.211Z,99.3
2022-12-06T08:11:16.718Z,99.4
2022-12-06T08:12:16.470Z,99.4
2022-12-06T08:13:16.965Z,99.4
2022-12-06T08:14:17.446Z,99.3
2022-12-06T08:15:16.949Z,99.3
2022-12-06T08:16:17.656Z,99.3
2022-12-06T08:17:17.181Z,99.3
2022-12-06T08:18:16.654Z,99.3
2022-12-06T08:19:17.209Z,99.3
2022-12-06T08:20:16.726Z,99.2
2022-12-06T08:21:17.195Z,99.2
2022-12-06T08:22:16.476Z,99.2
2022-12-06T08:23:16.956Z,99.2
2022-12-06T08:24:17.448Z,99.2
2022-12-06T08:25:17.013Z,99.2
2022-12-06T08:26:16.491Z,99.2
2022-12-06T08:27:16.968Z,99.2
2022-12-06T08:28:16.476Z,99.2
2022-12-06T08:29:16.941Z,99.2
2022-12-06T08:30:17.404Z,99.2
2022-12-06T08:31:17.057Z,99.2
2022-12-06T08:32:16.658Z,99.2
2022-12-06T08:33:17.150Z,99.2
2022-12-06T08:34:16.659Z,99.2
2022-12-06T08:35:17.154Z,99.2
2022-12-06T08:36:16.660Z,99.2
2022-12-06T08:37:17.224Z,99.2
2022-12-06T08:38:16.720Z,99.2
2022-12-06T08:39:17.233Z,99.2
2022-12-06T08:40:16.729Z,99.2
2022-12-06T08:41:17.215Z,99.2
2022-12-06T08:42:25.288Z,99.2
2022-12-06T08:43:18.002Z,99.2
2022-12-06T08:44:16.501Z,99.2
2022-12-06T08:45:16.980Z,99.2
2022-12-06T08:46:16.592Z,99.2
2022-12-06T08:47:17.100Z,99.2
2022-12-06T08:48:16.580Z,99.2
2022-12-06T08:49:17.045Z,99.3
2022-12-06T08:50:16.540Z,99.2
2022-12-06T08:51:17.038Z,99.2
2022-12-06T08:52:17.135Z,99.2
2022-12-06T08:53:16.631Z,99.2
2022-12-06T08:54:17.092Z,99.2
2022-12-06T08:55:16.544Z,99.3
2022-12-06T08:56:17.032Z,99.3
2022-12-06T08:57:16.530Z,99.3
2022-12-06T08:58:16.987Z,99.3
2022-12-06T08:59:16.448Z,99.3
2022-12-06T09:00:16.938Z,99.3
2022-12-06T09:01:17.619Z,99.3
2022-12-06T09:02:16.753Z,99.3
2022-12-06T09:03:17.259Z,99.3
2022-12-06T09:04:16.871Z,99.3
2022-12-06T09:05:17.400Z,99.3
2022-12-06T09:06:16.858Z,99.3
2022-12-06T09:07:17.377Z,99.3
2022-12-06T09:08:17.078Z,99.4
2022-12-06T09:09:16.576Z,99.4
2022-12-06T09:10:17.063Z,99.3
2022-12-06T09:11:16.537Z,99.3
2022-12-06T09:12:17.415Z,99.3
2022-12-06T09:13:16.915Z,99.3
2022-12-06T09:14:22.509Z,99.3
2022-12-06T09:15:17.090Z,99.3
2022-12-06T09:16:16.810Z,99.3
2022-12-06T09:17:17.351Z,99.3
2022-12-06T09:18:16.845Z,99.4
2022-12-06T09:19:17.355Z,99.4
2022-12-06T09:20:16.843Z,99.5
2022-12-06T09:21:17.345Z,99.5
2022-12-06T09:22:17.318Z,99.5
2022-12-06T09:23:16.793Z,99.5
2022-12-06T09:24:17.274Z,99.5
2022-12-06T09:25:16.762Z,99.4
2022-12-06T09:26:17.247Z,99.4
2022-12-06T09:27:16.716Z,99.3
2022-12-06T09:28:17.209Z,99.4
2022-12-06T09:29:16.727Z,99.4
2022-12-06T09:30:17.211Z,99.3
2022-12-06T09:31:16.819Z,99.4
2022-12-06T09:32:16.993Z,99.5
2022-12-06T09:33:16.467Z,99.4
2022-12-06T09:34:16.961Z,99.3
2022-12-06T09:35:24.970Z,99.3
2022-12-06T09:36:16.739Z,99.3
2022-12-06T09:37:17.236Z,99.3
2022-12-06T09:38:16.752Z,99.3
2022-12-06T09:39:17.247Z,99.0
2022-12-06T09:40:16.766Z,99.0
2022-12-06T09:41:17.237Z,99.2
2022-12-06T09:42:17.132Z,99.2
2022-12-06T09:43:16.609Z,99.3
2022-12-06T09:44:17.119Z,99.3
2022-12-06T09:45:16.643Z,99.3
2022-12-06T09:46:17.229Z,99.2
2022-12-06T09:47:16.755Z,99.2
2022-12-06T09:48:17.238Z,99.2
2022-12-06T09:49:16.717Z,99.3
2022-12-06T09:50:17.190Z,99.0
2022-12-06T09:51:16.658Z,99.3
2022-12-06T09:52:16.532Z,99.3
2022-12-06T09:53:17.033Z,99.2
2022-12-06T09:54:16.529Z,99.3
2022-12-06T09:55:17.011Z,99.1
2022-12-06T09:56:16.526Z,99.2
2022-12-06T09:57:16.993Z,99.2
2022-12-06T09:58:16.514Z,99.0
2022-12-06T09:59:16.996Z,98.9
2022-12-06T10:00:23.238Z,99.1
2022-12-06T10:01:16.885Z,99.2
2022-12-06T10:02:16.734Z,99.2
2022-12-06T10:03:17.364Z,99.1
2022-12-06T10:04:16.872Z,99.2
2022-12-06T10:05:17.363Z,99.1
2022-12-06T10:06:16.823Z,99.1
2022-12-06T10:07:17.333Z,99.2
2022-12-06T10:08:16.994Z,99.1
2022-12-06T10:09:16.671Z,99.1
2022-12-06T10:10:17.214Z,99.1
2022-12-06T10:11:16.706Z,99.2
2022-12-06T10:12:17.185Z,99.2
2022-12-06T10:13:16.657Z,99.2
2022-12-06T10:14:17.117Z,99.2
2022-12-06T10:15:16.595Z,99.2
2022-12-06T10:16:17.278Z,99.3
2022-12-06T10:17:16.775Z,99.3
2022-12-06T10:18:17.268Z,99.4
2022-12-06T10:19:17.013Z,99.5
2022-12-06T10:20:16.631Z,99.5
2022-12-06T10:21:17.107Z,99.5
2022-12-06T10:22:17.113Z,99.5
2022-12-06T10:23:16.605Z,99.5
2022-12-06T10:24:17.144Z,99.6
2022-12-06T10:25:16.635Z,99.5
2022-12-06T10:26:17.238Z,99.5
2022-12-06T10:27:16.725Z,99.6
2022-12-06T10:28:17.213Z,99.6
2022-12-06T10:29:16.687Z,99.6
2022-12-06T10:30:17.158Z,99.5
2022-12-06T10:31:16.822Z,99.5
2022-12-06T10:32:17.108Z,99.5
2022-12-06T10:33:16.621Z,99.5
2022-12-06T10:34:17.084Z,99.5
2022-12-06T10:35:16.554Z,99.5
2022-12-06T10:36:17.049Z,99.5
2022-12-06T10:37:16.564Z,99.5
2022-12-06T10:38:17.060Z,99.5
2022-12-06T10:39:16.581Z,99.5
2022-12-06T10:40:17.090Z,99.5
2022-12-06T10:41:16.616Z,99.5
2022-12-06T10:42:17.512Z,99.5
2022-12-06T10:43:16.975Z,99.5
2022-12-06T10:44:16.441Z,99.5
2022-12-06T10:45:24.966Z,99.5
2022-12-06T10:46:16.648Z,99.4
2022-12-06T10:47:17.176Z,99.3
2022-12-06T10:48:16.655Z,99.3
2022-12-06T10:49:17.162Z,99.3
2022-12-06T10:50:16.641Z,99.2
2022-12-06T10:51:17.157Z,99.3
2022-12-06T10:52:16.896Z,99.3
2022-12-06T10:53:17.392Z,99.3
2022-12-06T10:54:16.880Z,99.4
2022-12-06T10:55:17.401Z,99.3
2022-12-06T10:56:16.878Z,99.3
2022-12-06T10:57:17.367Z,99.3
2022-12-06T10:58:16.829Z,99.2
2022-12-06T10:59:17.360Z,99.2
2022-12-06T11:00:17.628Z,99.2
2022-12-06T11:01:17.483Z,99.3
2022-12-06T11:02:17.462Z,99.2
2022-12-06T11:03:17.005Z,99.2
2022-12-06T11:04:16.515Z,99.2
2022-12-06T11:05:16.995Z,99.2
2022-12-06T11:06:16.500Z,99.1
2022-12-06T11:07:16.989Z,99.0
2022-12-06T11:08:16.554Z,98.8
2022-12-06T11:09:17.076Z,99.1
2022-12-06T11:10:16.575Z,99.2
2022-12-06T11:11:17.057Z,99.2
2022-12-06T11:12:17.020Z,98.9
2022-12-06T11:13:16.511Z,98.8
2022-12-06T11:14:17.015Z,98.8
2022-12-06T11:15:16.517Z,98.7
2022-12-06T11:16:17.120Z,98.6
2022-12-06T11:17:16.653Z,98.9
2022-12-06T11:18:17.146Z,98.7
2022-12-06T11:19:16.631Z,98.6
2022-12-06T11:20:17.145Z,98.7
2022-12-06T11:21:16.642Z,99.0
2022-12-06T11:22:17.155Z,98.8
2022-12-06T11:23:16.765Z,99.0
2022-12-06T11:24:17.252Z,99.2
2022-12-06T11:25:16.731Z,99.2
2022-12-06T11:26:17.251Z,99.2
2022-12-06T11:27:16.733Z,99.2
2022-12-06T11:28:17.230Z,99.2
2022-12-06T11:29:16.773Z,99.2
2022-12-06T11:30:20.876Z,99.2
2022-12-06T11:31:17.576Z,99.3
2022-12-06T11:32:16.634Z,99.3
2022-12-06T11:33:17.090Z,99.3
2022-12-06T11:34:16.595Z,99.2
2022-12-06T11:35:17.082Z,99.2
2022-12-06T11:36:16.574Z,99.3
2022-12-06T11:37:17.042Z,99.2
2022-12-06T11:38:16.516Z,99.3
2022-12-06T11:39:16.987Z,99.3
2022-12-06T11:40:16.510Z,99.3
2022-12-06T11:41:17.001Z,99.3
2022-12-06T11:42:16.760Z,99.3
2022-12-06T11:43:17.361Z,99.2
2022-12-06T11:44:16.876Z,99.3
2022-12-06T11:45:17.382Z,99.3
2022-12-06T11:46:17.034Z,99.3
2022-12-06T11:47:16.598Z,99.2
2022-12-06T11:48:17.112Z,99.0
2022-12-06T11:49:16.628Z,99.2
2022-12-06T11:50:17.485Z,99.3
2022-12-06T11:51:16.987Z,99.3
2022-12-06T11:52:16.795Z,99.2
2022-12-06T11:53:17.289Z,99.2
2022-12-06T11:54:16.754Z,99.2
2022-12-06T11:55:17.270Z,99.2
2022-12-06T11:56:16.771Z,99.1
2022-12-06T11:57:22.991Z,99.2
2022-12-06T11:58:16.533Z,98.8
2022-12-06T11:59:17.040Z,98.9
2022-12-06T12:00:16.900Z,98.8
2022-12-06T12:01:16.493Z,98.8
2022-12-06T12:02:19.813Z,98.6
2022-12-06T12:03:17.516Z,98.7
2022-12-06T12:04:17.081Z,98.8
2022-12-06T12:05:16.583Z,98.8
2022-12-06T12:06:17.062Z,98.9
2022-12-06T12:07:16.532Z,99.1
2022-12-06T12:08:17.166Z,99.2
2022-12-06T12:09:16.746Z,99.1
2022-12-06T12:10:17.302Z,99.2
2022-12-06T12:11:16.770Z,99.2
2022-12-06T12:12:16.603Z,99.2
2022-12-06T12:13:17.077Z,99.2
2022-12-06T12:14:16.595Z,98.9
2022-12-06T12:15:17.091Z,99.1
2022-12-06T12:16:16.720Z,99.1
2022-12-06T12:17:17.850Z,99.1
2022-12-06T12:18:17.327Z,99.1
2022-12-06T12:19:16.785Z,99.0
2022-12-06T12:20:17.273Z,99.2
2022-12-06T12:21:16.748Z,99.2
2022-12-06T12:22:17.269Z,99.2
2022-12-06T12:23:16.748Z,99.1
2022-12-06T12:24:17.223Z,99.2
2022-12-06T12:25:20.173Z,99.2
2022-12-06T12:26:16.797Z,99.2
2022-12-06T12:27:25.772Z,99.2
2022-12-06T12:28:16.804Z,99.2
2022-12-06T12:29:17.317Z,99.1
2022-12-06T12:30:17.044Z,99.2
2022-12-06T12:31:16.567Z,99.2
2022-12-06T12:32:17.535Z,99.0
2022-12-06T12:33:17.031Z,99.0
2022-12-06T12:34:16.538Z,99.1
2022-12-06T12:35:17.011Z,99.2
2022-12-06T12:36:16.475Z,99.1
2022-12-06T12:37:16.941Z,99.1
2022-12-06T12:38:17.433Z,98.8
2022-12-06T12:39:16.930Z,98.8
2022-12-06T12:40:17.484Z,98.5
2022-12-06T12:41:16.983Z,98.4
2022-12-06T12:42:16.560Z,98.6
2022-12-06T12:43:17.101Z,98.8
2022-12-06T12:44:37.398Z,98.3
2022-12-06T12:45:16.580Z,98.1
2022-12-06T12:46:17.134Z,97.9
2022-12-06T12:47:16.632Z,97.6
2022-12-06T12:48:17.112Z,97.6
2022-12-06T12:49:16.592Z,97.5
2022-12-06T12:50:17.059Z,97.5
2022-12-06T12:51:16.557Z,97.5
2022-12-06T12:52:17.610Z,97.7
2022-12-06T12:53:17.144Z,97.8
2022-12-06T12:54:16.639Z,97.4
2022-12-06T12:55:17.149Z,97.7
2022-12-06T12:56:16.707Z,97.6
2022-12-06T12:57:17.211Z,97.8
2022-12-06T12:58:16.675Z,98.1
2022-12-06T12:59:17.159Z,97.9
2022-12-06T13:00:16.634Z,97.8
2022-12-06T13:01:17.274Z,97.8
2022-12-06T13:02:17.350Z,98.0
2022-12-06T13:03:50.030Z,98.2
2022-12-06T13:04:17.391Z,98.2
2022-12-06T13:05:34.171Z,98.2
2022-12-06T13:06:17.042Z,97.8
2022-12-06T13:07:16.535Z,97.8
2022-12-06T13:08:17.130Z,98.2
2022-12-06T13:09:16.718Z,98.2
2022-12-06T13:10:17.234Z,98.2
2022-12-06T13:11:16.692Z,98.2
2022-12-06T13:12:17.501Z,98.3
2022-12-06T13:13:16.982Z,98.2
2022-12-06T13:14:16.473Z,98.3